sensor_id;sensor_type;location;lat;lon;timestamp;pressure;altitude;pressure_sealevel;temperature;humidity
68871;BME280;55906;52.278;6.808;2022-09-25T00:00:30;101419.59;;;12.55;87.12
68871;BME280;55906;52.278;6.808;2022-09-25T00:02:58;101428.34;;;12.52;86.93
68871;BME280;55906;52.278;6.808;2022-09-25T00:05:25;101425.56;;;12.47;86.91
68871;BME280;55906;52.278;6.808;2022-09-25T00:07:52;101430.69;;;12.41;86.79
68871;BME280;55906;52.278;6.808;2022-09-25T00:10:21;101426.13;;;12.36;86.73
68871;BME280;55906;52.278;6.808;2022-09-25T00:12:49;101429.41;;;12.27;86.35
68871;BME280;55906;52.278;6.808;2022-09-25T00:15:15;101434.47;;;12.20;86.76
68871;BME280;55906;52.278;6.808;2022-09-25T00:17:42;101427.25;;;12.12;86.43
68871;BME280;55906;52.278;6.808;2022-09-25T00:20:11;101436.72;;;12.06;86.30
68871;BME280;55906;52.278;6.808;2022-09-25T00:22:36;101435.66;;;11.99;86.51
68871;BME280;55906;52.278;6.808;2022-09-25T00:25:04;101434.53;;;11.91;86.55
68871;BME280;55906;52.278;6.808;2022-09-25T00:27:30;101436.09;;;11.84;86.83
68871;BME280;55906;52.278;6.808;2022-09-25T00:29:57;101446.44;;;11.78;86.46
68871;BME280;55906;52.278;6.808;2022-09-25T00:32:34;101446.28;;;11.74;86.23
68871;BME280;55906;52.278;6.808;2022-09-25T00:35:01;101445.88;;;11.62;86.68
68871;BME280;55906;52.278;6.808;2022-09-25T00:37:31;101448.41;;;11.59;86.36
68871;BME280;55906;52.278;6.808;2022-09-25T00:39:58;101456.94;;;11.50;87.03
68871;BME280;55906;52.278;6.808;2022-09-25T00:42:24;101447.09;;;11.44;86.64
68871;BME280;55906;52.278;6.808;2022-09-25T00:44:54;101442.56;;;11.40;86.71
68871;BME280;55906;52.278;6.808;2022-09-25T00:47:44;101442.44;;;11.36;87.07
68871;BME280;55906;52.278;6.808;2022-09-25T00:50:18;101443.13;;;11.30;86.55
68871;BME280;55906;52.278;6.808;2022-09-25T00:52:49;101452.63;;;11.25;86.53
68871;BME280;55906;52.278;6.808;2022-09-25T00:55:18;101455.00;;;11.17;86.82
68871;BME280;55906;52.278;6.808;2022-09-25T00:57:49;101467.22;;;11.15;86.62
68871;BME280;55906;52.278;6.808;2022-09-25T01:00:18;101460.13;;;11.13;86.85
68871;BME280;55906;52.278;6.808;2022-09-25T01:02:47;101461.59;;;11.05;87.42
68871;BME280;55906;52.278;6.808;2022-09-25T01:05:19;101453.56;;;11.00;87.41
68871;BME280;55906;52.278;6.808;2022-09-25T01:07:50;101454.28;;;10.96;86.93
68871;BME280;55906;52.278;6.808;2022-09-25T01:10:19;101451.47;;;10.90;87.40
68871;BME280;55906;52.278;6.808;2022-09-25T01:12:48;101448.66;;;10.85;87.66
68871;BME280;55906;52.278;6.808;2022-09-25T01:15:18;101450.34;;;10.83;87.35
68871;BME280;55906;52.278;6.808;2022-09-25T01:17:53;101457.19;;;10.78;87.64
68871;BME280;55906;52.278;6.808;2022-09-25T01:20:33;101457.94;;;10.74;87.33
68871;BME280;55906;52.278;6.808;2022-09-25T01:23:19;101445.50;;;10.70;88.08
68871;BME280;55906;52.278;6.808;2022-09-25T01:26:03;101447.09;;;10.65;88.01
68871;BME280;55906;52.278;6.808;2022-09-25T01:28:53;101453.03;;;10.60;88.06
68871;BME280;55906;52.278;6.808;2022-09-25T01:31:28;101458.19;;;10.56;88.34
68871;BME280;55906;52.278;6.808;2022-09-25T01:34:02;101451.94;;;10.53;87.69
68871;BME280;55906;52.278;6.808;2022-09-25T01:36:34;101450.94;;;10.49;87.90
68871;BME280;55906;52.278;6.808;2022-09-25T01:39:07;101451.81;;;10.50;88.07
68871;BME280;55906;52.278;6.808;2022-09-25T01:41:40;101454.22;;;10.44;88.34
68871;BME280;55906;52.278;6.808;2022-09-25T01:44:15;101457.56;;;10.40;88.84
68871;BME280;55906;52.278;6.808;2022-09-25T01:46:46;101453.97;;;10.38;88.12
68871;BME280;55906;52.278;6.808;2022-09-25T01:49:19;101449.50;;;10.35;88.18
68871;BME280;55906;52.278;6.808;2022-09-25T01:51:51;101459.97;;;10.34;87.99
68871;BME280;55906;52.278;6.808;2022-09-25T01:54:20;101457.28;;;10.32;88.28
68871;BME280;55906;52.278;6.808;2022-09-25T01:56:51;101455.31;;;10.26;88.53
68871;BME280;55906;52.278;6.808;2022-09-25T01:59:24;101459.63;;;10.24;88.14
68871;BME280;55906;52.278;6.808;2022-09-25T02:01:55;101461.31;;;10.22;87.91
68871;BME280;55906;52.278;6.808;2022-09-25T02:04:27;101454.22;;;10.20;88.52
68871;BME280;55906;52.278;6.808;2022-09-25T02:07:00;101455.91;;;10.19;88.38
68871;BME280;55906;52.278;6.808;2022-09-25T02:09:31;101456.69;;;10.17;88.54
68871;BME280;55906;52.278;6.808;2022-09-25T02:12:03;101446.00;;;10.12;88.09
68871;BME280;55906;52.278;6.808;2022-09-25T02:14:36;101452.94;;;10.10;88.41
68871;BME280;55906;52.278;6.808;2022-09-25T02:17:06;101448.41;;;10.06;88.38
68871;BME280;55906;52.278;6.808;2022-09-25T02:19:36;101457.03;;;10.02;88.29
68871;BME280;55906;52.278;6.808;2022-09-25T02:22:23;101455.22;;;10.01;88.14
68871;BME280;55906;52.278;6.808;2022-09-25T02:24:55;101449.84;;;9.98;88.34
68871;BME280;55906;52.278;6.808;2022-09-25T02:27:25;101457.63;;;9.95;88.35
68871;BME280;55906;52.278;6.808;2022-09-25T02:29:55;101458.47;;;9.94;88.38
68871;BME280;55906;52.278;6.808;2022-09-25T02:32:25;101454.81;;;9.90;88.34
68871;BME280;55906;52.278;6.808;2022-09-25T02:34:54;101459.97;;;9.87;88.41
68871;BME280;55906;52.278;6.808;2022-09-25T02:37:21;101459.91;;;9.86;88.27
68871;BME280;55906;52.278;6.808;2022-09-25T02:39:53;101456.31;;;9.84;88.50
68871;BME280;55906;52.278;6.808;2022-09-25T02:42:28;101464.03;;;9.79;88.05
68871;BME280;55906;52.278;6.808;2022-09-25T02:45:06;101459.63;;;9.78;88.65
68871;BME280;55906;52.278;6.808;2022-09-25T02:47:41;101465.59;;;9.74;88.58
68871;BME280;55906;52.278;6.808;2022-09-25T02:50:15;101458.53;;;9.73;88.71
68871;BME280;55906;52.278;6.808;2022-09-25T02:52:51;101456.75;;;9.72;88.42
68871;BME280;55906;52.278;6.808;2022-09-25T02:55:24;101460.88;;;9.66;88.21
68871;BME280;55906;52.278;6.808;2022-09-25T02:57:55;101463.44;;;9.64;88.71
68871;BME280;55906;52.278;6.808;2022-09-25T03:00:27;101455.44;;;9.61;88.75
68871;BME280;55906;52.278;6.808;2022-09-25T03:02:55;101453.59;;;9.58;88.24
68871;BME280;55906;52.278;6.808;2022-09-25T03:05:24;101462.31;;;9.57;88.70
68871;BME280;55906;52.278;6.808;2022-09-25T03:07:52;101449.06;;;9.54;88.51
68871;BME280;55906;52.278;6.808;2022-09-25T03:10:36;101452.34;;;9.49;88.34
68871;BME280;55906;52.278;6.808;2022-09-25T03:13:16;101449.66;;;9.47;88.63
68871;BME280;55906;52.278;6.808;2022-09-25T03:15:47;101444.28;;;9.44;88.36
68871;BME280;55906;52.278;6.808;2022-09-25T03:18:16;101445.81;;;9.39;88.47
68871;BME280;55906;52.278;6.808;2022-09-25T03:20:43;101455.38;;;9.37;88.28
68871;BME280;55906;52.278;6.808;2022-09-25T03:23:10;101449.94;;;9.33;88.41
68871;BME280;55906;52.278;6.808;2022-09-25T03:25:37;101461.22;;;9.30;88.58
68871;BME280;55906;52.278;6.808;2022-09-25T03:28:07;101457.63;;;9.28;88.86
68871;BME280;55906;52.278;6.808;2022-09-25T03:30:36;101455.72;;;9.24;88.39
68871;BME280;55906;52.278;6.808;2022-09-25T03:33:07;101452.13;;;9.22;88.46
68871;BME280;55906;52.278;6.808;2022-09-25T03:35:34;101446.81;;;9.20;88.82
68871;BME280;55906;52.278;6.808;2022-09-25T03:38:01;101446.75;;;9.19;88.65
68871;BME280;55906;52.278;6.808;2022-09-25T03:40:28;101448.41;;;9.17;88.42
68871;BME280;55906;52.278;6.808;2022-09-25T03:42:55;101441.38;;;9.16;88.52
68871;BME280;55906;52.278;6.808;2022-09-25T03:45:21;101437.81;;;9.14;88.49
68871;BME280;55906;52.278;6.808;2022-09-25T03:47:48;101436.00;;;9.13;88.75
68871;BME280;55906;52.278;6.808;2022-09-25T03:50:17;101439.47;;;9.12;88.73
68871;BME280;55906;52.278;6.808;2022-09-25T03:52:43;101440.19;;;9.09;88.27
68871;BME280;55906;52.278;6.808;2022-09-25T03:55:10;101440.06;;;9.06;88.56
68871;BME280;55906;52.278;6.808;2022-09-25T03:57:37;101443.41;;;9.02;88.39
68871;BME280;55906;52.278;6.808;2022-09-25T04:00:05;101438.09;;;9.01;88.10
68871;BME280;55906;52.278;6.808;2022-09-25T04:02:32;101438.88;;;8.98;88.39
68871;BME280;55906;52.278;6.808;2022-09-25T04:04:58;101433.50;;;8.95;88.18
68871;BME280;55906;52.278;6.808;2022-09-25T04:07:28;101443.03;;;8.93;88.42
68871;BME280;55906;52.278;6.808;2022-09-25T04:09:54;101442.91;;;8.90;88.53
68871;BME280;55906;52.278;6.808;2022-09-25T04:12:21;101442.84;;;8.88;88.58
68871;BME280;55906;52.278;6.808;2022-09-25T04:14:48;101440.09;;;8.85;88.58
68871;BME280;55906;52.278;6.808;2022-09-25T04:17:15;101440.09;;;8.85;88.81
68871;BME280;55906;52.278;6.808;2022-09-25T04:19:42;101432.78;;;8.78;88.61
68871;BME280;55906;52.278;6.808;2022-09-25T04:22:08;101437.97;;;8.77;88.86
68871;BME280;55906;52.278;6.808;2022-09-25T04:24:36;101434.31;;;8.73;88.63
68871;BME280;55906;52.278;6.808;2022-09-25T04:27:18;101436.00;;;8.71;88.76
68871;BME280;55906;52.278;6.808;2022-09-25T04:29:46;101428.94;;;8.70;88.82
68871;BME280;55906;52.278;6.808;2022-09-25T04:32:13;101434.97;;;8.68;88.93
68871;BME280;55906;52.278;6.808;2022-09-25T04:34:58;101439.19;;;8.64;88.80
68871;BME280;55906;52.278;6.808;2022-09-25T04:37:25;101446.22;;;8.65;88.53
68871;BME280;55906;52.278;6.808;2022-09-25T04:39:54;101439.94;;;8.61;88.44
68871;BME280;55906;52.278;6.808;2022-09-25T04:42:21;101446.84;;;8.59;88.43
68871;BME280;55906;52.278;6.808;2022-09-25T04:44:49;101442.38;;;8.57;88.66
68871;BME280;55906;52.278;6.808;2022-09-25T04:47:16;101434.38;;;8.54;88.88
68871;BME280;55906;52.278;6.808;2022-09-25T04:49:43;101443.97;;;8.53;88.64
68871;BME280;55906;52.278;6.808;2022-09-25T04:52:11;101436.94;;;8.52;89.22
68871;BME280;55906;52.278;6.808;2022-09-25T04:54:38;101444.66;;;8.49;88.42
68871;BME280;55906;52.278;6.808;2022-09-25T04:57:06;101439.44;;;8.49;89.08
68871;BME280;55906;52.278;6.808;2022-09-25T04:59:32;101435.78;;;8.46;88.86
68871;BME280;55906;52.278;6.808;2022-09-25T05:01:59;101438.41;;;8.46;89.41
68871;BME280;55906;52.278;6.808;2022-09-25T05:04:26;101443.56;;;8.44;88.83
68871;BME280;55906;52.278;6.808;2022-09-25T05:06:53;101436.47;;;8.42;88.76
68871;BME280;55906;52.278;6.808;2022-09-25T05:09:19;101434.75;;;8.42;88.65
68871;BME280;55906;52.278;6.808;2022-09-25T05:11:46;101432.06;;;8.41;88.86
68871;BME280;55906;52.278;6.808;2022-09-25T05:14:14;101437.22;;;8.39;89.13
68871;BME280;55906;52.278;6.808;2022-09-25T05:16:41;101443.25;;;8.37;88.95
68871;BME280;55906;52.278;6.808;2022-09-25T05:19:07;101438.00;;;8.37;88.85
68871;BME280;55906;52.278;6.808;2022-09-25T05:21:34;101430.78;;;8.32;88.59
68871;BME280;55906;52.278;6.808;2022-09-25T05:24:01;101443.00;;;8.32;89.17
68871;BME280;55906;52.278;6.808;2022-09-25T05:26:28;101436.88;;;8.31;88.36
68871;BME280;55906;52.278;6.808;2022-09-25T05:28:55;101439.41;;;8.30;88.61
68871;BME280;55906;52.278;6.808;2022-09-25T05:31:23;101435.91;;;8.29;88.88
68871;BME280;55906;52.278;6.808;2022-09-25T05:33:50;101435.91;;;8.29;88.97
68871;BME280;55906;52.278;6.808;2022-09-25T05:36:17;101441.97;;;8.28;88.96
68871;BME280;55906;52.278;6.808;2022-09-25T05:38:44;101429.81;;;8.30;89.01
68871;BME280;55906;52.278;6.808;2022-09-25T05:41:11;101428.09;;;8.31;89.06
68871;BME280;55906;52.278;6.808;2022-09-25T05:43:39;101431.63;;;8.31;88.99
68871;BME280;55906;52.278;6.808;2022-09-25T05:46:06;101439.66;;;8.34;89.11
68871;BME280;55906;52.278;6.808;2022-09-25T05:48:34;101438.81;;;8.36;89.37
68871;BME280;55906;52.278;6.808;2022-09-25T05:51:02;101444.19;;;8.39;88.79
68871;BME280;55906;52.278;6.808;2022-09-25T05:53:28;101443.38;;;8.40;89.06
68871;BME280;55906;52.278;6.808;2022-09-25T05:55:57;101435.56;;;8.41;89.05
68871;BME280;55906;52.278;6.808;2022-09-25T05:58:24;101437.50;;;8.45;89.39
68871;BME280;55906;52.278;6.808;2022-09-25T06:00:51;101435.00;;;8.48;88.95
68871;BME280;55906;52.278;6.808;2022-09-25T06:03:18;101437.00;;;8.54;89.00
68871;BME280;55906;52.278;6.808;2022-09-25T06:05:46;101441.59;;;8.59;89.22
68871;BME280;55906;52.278;6.808;2022-09-25T06:08:13;101429.53;;;8.63;88.77
68871;BME280;55906;52.278;6.808;2022-09-25T06:10:40;101437.66;;;8.69;88.99
68871;BME280;55906;52.278;6.808;2022-09-25T06:13:07;101430.88;;;8.74;88.87
68871;BME280;55906;52.278;6.808;2022-09-25T06:15:35;101442.47;;;8.79;88.93
68871;BME280;55906;52.278;6.808;2022-09-25T06:18:02;101434.06;;;8.88;89.34
68871;BME280;55906;52.278;6.808;2022-09-25T06:20:29;101429.91;;;8.93;88.84
68871;BME280;55906;52.278;6.808;2022-09-25T06:22:58;101429.41;;;9.02;88.96
68871;BME280;55906;52.278;6.808;2022-09-25T06:25:27;101427.97;;;9.10;88.71
68871;BME280;55906;52.278;6.808;2022-09-25T06:27:55;101432.69;;;9.17;88.93
68871;BME280;55906;52.278;6.808;2022-09-25T06:30:23;101434.00;;;9.28;88.89
68871;BME280;55906;52.278;6.808;2022-09-25T06:32:58;101423.88;;;9.37;88.88
68871;BME280;55906;52.278;6.808;2022-09-25T06:35:24;101434.78;;;9.48;88.50
68871;BME280;55906;52.278;6.808;2022-09-25T06:37:52;101440.47;;;9.58;88.70
68871;BME280;55906;52.278;6.808;2022-09-25T06:40:23;101431.25;;;9.70;88.05
68871;BME280;55906;52.278;6.808;2022-09-25T06:42:54;101428.97;;;9.79;88.13
68871;BME280;55906;52.278;6.808;2022-09-25T06:45:21;101438.09;;;9.88;87.90
68871;BME280;55906;52.278;6.808;2022-09-25T06:47:47;101444.59;;;9.98;87.69
68871;BME280;55906;52.278;6.808;2022-09-25T06:50:14;101441.53;;;10.10;87.61
68871;BME280;55906;52.278;6.808;2022-09-25T06:52:41;101441.06;;;10.20;87.19
68871;BME280;55906;52.278;6.808;2022-09-25T06:55:08;101437.94;;;10.30;87.06
68871;BME280;55906;52.278;6.808;2022-09-25T06:57:36;101440.97;;;10.41;87.26
68871;BME280;55906;52.278;6.808;2022-09-25T07:00:04;101441.19;;;10.47;86.76
68871;BME280;55906;52.278;6.808;2022-09-25T07:02:31;101447.78;;;10.60;86.75
68871;BME280;55906;52.278;6.808;2022-09-25T07:05:15;101446.50;;;10.74;86.69
68871;BME280;55906;52.278;6.808;2022-09-25T07:07:43;101444.34;;;10.87;86.23
68871;BME280;55906;52.278;6.808;2022-09-25T07:10:10;101449.09;;;10.98;85.99
68871;BME280;55906;52.278;6.808;2022-09-25T07:12:38;101449.44;;;11.08;86.02
68871;BME280;55906;52.278;6.808;2022-09-25T07:15:06;101444.53;;;11.19;85.88
68871;BME280;55906;52.278;6.808;2022-09-25T07:17:33;101440.63;;;11.35;85.35
68871;BME280;55906;52.278;6.808;2022-09-25T07:20:00;101447.28;;;11.50;85.51
68871;BME280;55906;52.278;6.808;2022-09-25T07:22:28;101445.06;;;11.64;85.18
68871;BME280;55906;52.278;6.808;2022-09-25T07:24:54;101450.72;;;11.75;84.98
68871;BME280;55906;52.278;6.808;2022-09-25T07:27:21;101449.41;;;11.89;84.54
68871;BME280;55906;52.278;6.808;2022-09-25T07:29:50;101450.53;;;11.97;83.77
68871;BME280;55906;52.278;6.808;2022-09-25T07:32:17;101447.50;;;12.13;83.81
68871;BME280;55906;52.278;6.808;2022-09-25T07:34:44;101450.50;;;12.27;83.63
68871;BME280;55906;52.278;6.808;2022-09-25T07:37:14;101448.69;;;12.56;83.05
68871;BME280;55906;52.278;6.808;2022-09-25T07:39:41;101443.84;;;13.06;81.27
68871;BME280;55906;52.278;6.808;2022-09-25T07:42:07;101447.66;;;13.53;80.04
68871;BME280;55906;52.278;6.808;2022-09-25T07:44:35;101441.78;;;14.07;79.61
68871;BME280;55906;52.278;6.808;2022-09-25T07:47:03;101440.25;;;14.60;79.26
68871;BME280;55906;52.278;6.808;2022-09-25T07:49:33;101443.69;;;15.04;79.39
68871;BME280;55906;52.278;6.808;2022-09-25T07:52:05;101433.75;;;15.47;79.75
68871;BME280;55906;52.278;6.808;2022-09-25T07:54:32;101430.88;;;15.89;77.67
68871;BME280;55906;52.278;6.808;2022-09-25T07:56:58;101422.56;;;16.33;75.85
68871;BME280;55906;52.278;6.808;2022-09-25T07:59:25;101421.16;;;16.66;77.79
68871;BME280;55906;52.278;6.808;2022-09-25T08:01:52;101428.69;;;17.11;78.00
68871;BME280;55906;52.278;6.808;2022-09-25T08:04:21;101420.16;;;17.56;77.00
68871;BME280;55906;52.278;6.808;2022-09-25T08:06:48;101424.88;;;18.04;76.24
68871;BME280;55906;52.278;6.808;2022-09-25T08:09:14;101422.38;;;18.53;75.57
68871;BME280;55906;52.278;6.808;2022-09-25T08:11:41;101420.69;;;18.87;74.04
68871;BME280;55906;52.278;6.808;2022-09-25T08:14:09;101420.69;;;19.25;72.81
68871;BME280;55906;52.278;6.808;2022-09-25T08:16:38;101417.13;;;19.61;71.59
68871;BME280;55906;52.278;6.808;2022-09-25T08:19:05;101421.50;;;19.85;69.37
68871;BME280;55906;52.278;6.808;2022-09-25T08:21:33;101425.84;;;20.10;67.78
68871;BME280;55906;52.278;6.808;2022-09-25T08:24:00;101419.50;;;20.43;66.57
68871;BME280;55906;52.278;6.808;2022-09-25T08:26:27;101421.94;;;20.75;64.63
68871;BME280;55906;52.278;6.808;2022-09-25T08:28:54;101419.94;;;21.08;63.19
68871;BME280;55906;52.278;6.808;2022-09-25T08:31:21;101426.94;;;21.29;62.40
68871;BME280;55906;52.278;6.808;2022-09-25T08:33:49;101419.59;;;21.48;60.81
68871;BME280;55906;52.278;6.808;2022-09-25T08:36:16;101415.75;;;21.73;59.98
68871;BME280;55906;52.278;6.808;2022-09-25T08:38:45;101417.06;;;22.17;59.02
68871;BME280;55906;52.278;6.808;2022-09-25T08:41:15;101408.00;;;22.27;58.02
68871;BME280;55906;52.278;6.808;2022-09-25T08:43:47;101407.84;;;22.39;55.24
68871;BME280;55906;52.278;6.808;2022-09-25T08:46:19;101408.31;;;22.67;51.70
68871;BME280;55906;52.278;6.808;2022-09-25T08:49:06;101397.94;;;23.01;55.08
68871;BME280;55906;52.278;6.808;2022-09-25T08:51:36;101400.19;;;23.27;53.95
68871;BME280;55906;52.278;6.808;2022-09-25T08:54:08;101404.50;;;23.36;53.14
68871;BME280;55906;52.278;6.808;2022-09-25T08:56:37;101400.63;;;23.55;52.87
68871;BME280;55906;52.278;6.808;2022-09-25T08:59:16;101405.09;;;23.99;50.30
68871;BME280;55906;52.278;6.808;2022-09-25T09:01:49;101402.25;;;24.07;48.34
68871;BME280;55906;52.278;6.808;2022-09-25T09:04:22;101415.72;;;24.05;45.71
68871;BME280;55906;52.278;6.808;2022-09-25T09:06:54;101407.31;;;24.20;48.61
68871;BME280;55906;52.278;6.808;2022-09-25T09:09:27;101399.16;;;24.25;46.05
68871;BME280;55906;52.278;6.808;2022-09-25T09:12:00;101408.50;;;24.49;47.02
68871;BME280;55906;52.278;6.808;2022-09-25T09:14:30;101404.75;;;24.56;45.98
68871;BME280;55906;52.278;6.808;2022-09-25T09:17:14;101395.31;;;24.77;42.15
68871;BME280;55906;52.278;6.808;2022-09-25T09:19:45;101396.97;;;24.82;44.17
68871;BME280;55906;52.278;6.808;2022-09-25T09:22:13;101400.78;;;25.11;44.83
68871;BME280;55906;52.278;6.808;2022-09-25T09:24:54;101394.28;;;25.19;42.27
68871;BME280;55906;52.278;6.808;2022-09-25T09:27:34;101399.22;;;25.36;42.05
68871;BME280;55906;52.278;6.808;2022-09-25T09:30:11;101399.75;;;25.49;40.49
68871;BME280;55906;52.278;6.808;2022-09-25T09:32:54;101391.91;;;25.07;39.65
68871;BME280;55906;52.278;6.808;2022-09-25T09:35:29;101398.47;;;24.94;41.52
68871;BME280;55906;52.278;6.808;2022-09-25T09:38:05;101392.06;;;25.35;40.81
68871;BME280;55906;52.278;6.808;2022-09-25T09:40:56;101403.47;;;25.11;38.75
68871;BME280;55906;52.278;6.808;2022-09-25T09:43:37;101401.19;;;25.62;40.05
68871;BME280;55906;52.278;6.808;2022-09-25T09:46:14;101400.34;;;25.28;40.38
68871;BME280;55906;52.278;6.808;2022-09-25T09:48:51;101398.47;;;24.94;41.50
68871;BME280;55906;52.278;6.808;2022-09-25T09:51:24;101395.81;;;24.93;39.96
68871;BME280;55906;52.278;6.808;2022-09-25T09:53:57;101392.28;;;24.52;39.31
68871;BME280;55906;52.278;6.808;2022-09-25T09:56:30;101390.00;;;24.74;39.44
68871;BME280;55906;52.278;6.808;2022-09-25T09:58:59;101393.97;;;24.16;41.80
68871;BME280;55906;52.278;6.808;2022-09-25T10:01:28;101397.00;;;24.01;41.22
68871;BME280;55906;52.278;6.808;2022-09-25T10:04:03;101394.38;;;23.51;40.77
68871;BME280;55906;52.278;6.808;2022-09-25T10:06:34;101392.59;;;23.50;42.26
68871;BME280;55906;52.278;6.808;2022-09-25T10:09:02;101381.53;;;23.69;41.87
68871;BME280;55906;52.278;6.808;2022-09-25T10:11:31;101387.03;;;23.63;40.65
68871;BME280;55906;52.278;6.808;2022-09-25T10:14:02;101374.47;;;24.06;40.33
68871;BME280;55906;52.278;6.808;2022-09-25T10:16:29;101373.06;;;24.69;40.17
68871;BME280;55906;52.278;6.808;2022-09-25T10:19:00;101366.72;;;25.08;37.96
68871;BME280;55906;52.278;6.808;2022-09-25T10:21:31;101365.25;;;25.62;38.18
68871;BME280;55906;52.278;6.808;2022-09-25T10:23:59;101363.56;;;25.90;38.31
68871;BME280;55906;52.278;6.808;2022-09-25T10:26:29;101365.88;;;25.73;38.98
68871;BME280;55906;52.278;6.808;2022-09-25T10:28:58;101368.38;;;25.46;38.07
68871;BME280;55906;52.278;6.808;2022-09-25T10:31:27;101364.91;;;25.43;38.09
68871;BME280;55906;52.278;6.808;2022-09-25T10:34:00;101361.25;;;25.11;36.76
68871;BME280;55906;52.278;6.808;2022-09-25T10:36:30;101365.13;;;24.63;38.65
68871;BME280;55906;52.278;6.808;2022-09-25T10:38:57;101363.56;;;24.14;39.94
68871;BME280;55906;52.278;6.808;2022-09-25T10:41:24;101361.38;;;24.33;39.59
68871;BME280;55906;52.278;6.808;2022-09-25T10:43:53;101355.00;;;24.37;38.59
68871;BME280;55906;52.278;6.808;2022-09-25T10:46:30;101355.16;;;25.05;35.54
68871;BME280;55906;52.278;6.808;2022-09-25T10:49:17;101351.00;;;25.89;36.92
68871;BME280;55906;52.278;6.808;2022-09-25T10:52:04;101355.44;;;26.51;36.48
68871;BME280;55906;52.278;6.808;2022-09-25T10:54:31;101344.31;;;26.88;35.98
68871;BME280;55906;52.278;6.808;2022-09-25T10:56:59;101342.50;;;27.66;35.33
68871;BME280;55906;52.278;6.808;2022-09-25T10:59:26;101343.31;;;27.68;34.19
68871;BME280;55906;52.278;6.808;2022-09-25T11:01:56;101349.50;;;26.94;34.93
68871;BME280;55906;52.278;6.808;2022-09-25T11:04:25;101355.56;;;26.48;34.39
68871;BME280;55906;52.278;6.808;2022-09-25T11:06:56;101350.81;;;25.66;34.95
68871;BME280;55906;52.278;6.808;2022-09-25T11:09:25;101355.84;;;25.45;36.60
68871;BME280;55906;52.278;6.808;2022-09-25T11:12:03;101355.16;;;25.05;36.23
68871;BME280;55906;52.278;6.808;2022-09-25T11:14:33;101357.06;;;25.34;35.53
68871;BME280;55906;52.278;6.808;2022-09-25T11:17:03;101347.66;;;25.81;34.82
68871;BME280;55906;52.278;6.808;2022-09-25T11:19:32;101345.00;;;26.40;34.31
68871;BME280;55906;52.278;6.808;2022-09-25T11:22:09;101338.41;;;27.03;33.18
68871;BME280;55906;52.278;6.808;2022-09-25T11:24:47;101335.03;;;27.72;31.84
68871;BME280;55906;52.278;6.808;2022-09-25T11:27:20;101326.44;;;27.85;31.69
68871;BME280;55906;52.278;6.808;2022-09-25T11:29:56;101324.50;;;27.88;30.05
68871;BME280;55906;52.278;6.808;2022-09-25T11:32:31;101331.91;;;27.83;32.22
68871;BME280;55906;52.278;6.808;2022-09-25T11:37:53;101322.22;;;27.28;32.46
68871;BME280;55906;52.278;6.808;2022-09-25T11:40:38;101327.72;;;27.00;30.81
68871;BME280;55906;52.278;6.808;2022-09-25T11:43:29;101324.84;;;27.04;32.78
68871;BME280;55906;52.278;6.808;2022-09-25T11:46:04;101322.69;;;27.40;31.64
68871;BME280;55906;52.278;6.808;2022-09-25T11:48:41;101323.44;;;27.44;31.26
68871;BME280;55906;52.278;6.808;2022-09-25T11:51:19;101318.66;;;27.01;31.75
68871;BME280;55906;52.278;6.808;2022-09-25T11:53:56;101318.00;;;26.40;32.40
68871;BME280;55906;52.278;6.808;2022-09-25T11:56:32;101326.00;;;25.20;33.05
68871;BME280;55906;52.278;6.808;2022-09-25T11:59:19;101320.78;;;24.03;36.89
68871;BME280;55906;52.278;6.808;2022-09-25T12:01:52;101331.16;;;22.84;39.22
68871;BME280;55906;52.278;6.808;2022-09-25T12:04:40;101331.84;;;22.40;40.10
68871;BME280;55906;52.278;6.808;2022-09-25T12:07:31;101334.66;;;21.60;41.65
68871;BME280;55906;52.278;6.808;2022-09-25T12:10:12;101335.94;;;21.27;42.77
68871;BME280;55906;52.278;6.808;2022-09-25T12:12:48;101329.69;;;21.28;43.12
68871;BME280;55906;52.278;6.808;2022-09-25T12:15:27;101329.97;;;20.95;43.52
68871;BME280;55906;52.278;6.808;2022-09-25T12:18:03;101326.84;;;20.39;44.80
68871;BME280;55906;52.278;6.808;2022-09-25T12:20:36;101328.84;;;19.98;45.48
68871;BME280;55906;52.278;6.808;2022-09-25T12:23:14;101327.16;;;19.83;46.06
68871;BME280;55906;52.278;6.808;2022-09-25T12:26:01;101323.78;;;19.09;46.88
68871;BME280;55906;52.278;6.808;2022-09-25T12:28:39;101314.00;;;19.04;46.48
68871;BME280;55906;52.278;6.808;2022-09-25T12:31:15;101327.34;;;19.02;46.48
68871;BME280;55906;52.278;6.808;2022-09-25T12:33:52;101320.22;;;19.10;45.60
68871;BME280;55906;52.278;6.808;2022-09-25T12:36:25;101329.13;;;18.93;47.12
68871;BME280;55906;52.278;6.808;2022-09-25T12:39:17;101328.25;;;18.94;46.58
68871;BME280;55906;52.278;6.808;2022-09-25T12:41:49;101329.16;;;18.82;46.49
68871;BME280;55906;52.278;6.808;2022-09-25T12:44:18;101326.50;;;18.62;47.87
68871;BME280;55906;52.278;6.808;2022-09-25T12:46:50;101326.50;;;18.62;47.05
68871;BME280;55906;52.278;6.808;2022-09-25T12:49:24;101322.91;;;18.60;47.57
68871;BME280;55906;52.278;6.808;2022-09-25T12:51:57;101323.78;;;18.35;49.61
68871;BME280;55906;52.278;6.808;2022-09-25T12:54:30;101322.88;;;18.22;49.45
68871;BME280;55906;52.278;6.808;2022-09-25T12:57:03;101312.16;;;18.14;49.47
68871;BME280;55906;52.278;6.808;2022-09-25T12:59:37;101310.38;;;18.06;50.71
68871;BME280;55906;52.278;6.808;2022-09-25T13:02:12;101306.78;;;17.96;51.09
68871;BME280;55906;52.278;6.808;2022-09-25T13:04:54;101305.03;;;17.97;51.72
68871;BME280;55906;52.278;6.808;2022-09-25T13:07:28;101302.34;;;17.90;51.52
68871;BME280;55906;52.278;6.808;2022-09-25T13:10:02;101298.78;;;17.91;50.73
68871;BME280;55906;52.278;6.808;2022-09-25T13:12:34;101300.56;;;17.89;50.51
68871;BME280;55906;52.278;6.808;2022-09-25T13:15:05;101296.13;;;17.90;51.05